Time;durP1;ratioP1;P1;durP2;ratioP2;P2;SDS_P1;SDS_P2;PMS_P1;PMS_P2;Temp;Humidity;BMP_temperature;BMP_pressure;BME280_temperature;BME280_humidity;BME280_pressure;Samples;Min_cycle;Max_cycle;Signal;HPM_P1;HPM_P2
2024/01/22 00:00:35;;;;;;;6.63;4.50;;;4.80;1.00;;;;;;5121698;28;20491;-66
2024/01/22 00:03:03;;;;;;;8.30;4.63;;;4.80;1.00;;;;;;5121292;27;20901;-66
2024/01/22 00:05:30;;;;;;;9.17;4.67;;;4.90;1.00;;;;;;5121164;28;20468;-64
2024/01/22 00:07:59;;;;;;;6.87;4.60;;;4.90;97.80;;;;;;5121440;28;20884;-64
2024/01/22 00:10:27;;;;;;;6.27;4.37;;;4.90;99.90;;;;;;5120493;28;20487;-66
2024/01/22 00:12:54;;;;;;;10.77;4.77;;;4.90;99.90;;;;;;5121394;28;20462;-66
2024/01/22 00:15:21;;;;;;;5.97;4.60;;;4.90;99.90;;;;;;5121211;28;20767;-66
2024/01/22 00:17:49;;;;;;;8.53;4.30;;;4.90;99.90;;;;;;5121026;28;20455;-66
2024/01/22 00:20:16;;;;;;;7.43;5.40;;;5.00;99.90;;;;;;5120974;28;20487;-64
2024/01/22 00:22:43;;;;;;;7.43;4.10;;;5.00;99.90;;;;;;5120669;28;20887;-64
2024/01/22 00:25:12;;;;;;;8.00;4.97;;;5.10;1.00;;;;;;5119693;28;20554;-67
2024/01/22 00:27:39;;;;;;;14.40;4.43;;;5.20;99.90;;;;;;5120527;28;20498;-66
2024/01/22 00:30:08;;;;;;;7.53;5.40;;;5.20;65.00;;;;;;5121177;28;20455;-66
2024/01/22 00:32:35;;;;;;;8.10;5.90;;;5.30;99.90;;;;;;5121802;27;20800;-66
2024/01/22 00:35:03;;;;;;;7.80;5.97;;;5.30;1.00;;;;;;5121123;28;20813;-65
2024/01/22 00:37:30;;;;;;;9.50;5.23;;;5.30;1.00;;;;;;5120706;28;20487;-67
2024/01/22 00:39:57;;;;;;;9.17;5.50;;;5.30;1.00;;;;;;5121219;28;20546;-63
2024/01/22 00:42:26;;;;;;;8.20;5.27;;;5.30;99.90;;;;;;5120517;28;20498;-66
2024/01/22 00:44:53;;;;;;;8.30;5.60;;;5.40;1.00;;;;;;5121054;28;20546;-67
2024/01/22 00:47:21;;;;;;;7.20;5.23;;;5.40;99.90;;;;;;5121224;28;20460;-67
2024/01/22 00:49:48;;;;;;;9.83;5.83;;;5.40;99.90;;;;;;5120976;28;20455;-67
2024/01/22 00:52:15;;;;;;;8.50;5.50;;;5.40;99.90;;;;;;5120776;28;20455;-65
2024/01/22 00:54:43;;;;;;;13.27;4.87;;;5.40;1.00;;;;;;5120473;28;20460;-65
2024/01/22 00:57:10;;;;;;;7.97;5.43;;;5.50;1.00;;;;;;5120030;28;20893;-67
2024/01/22 00:59:39;;;;;;;8.63;5.73;;;5.50;99.90;;;;;;5120539;28;20451;-66
2024/01/22 01:02:06;;;;;;;9.50;5.60;;;5.70;99.90;;;;;;5120485;28;20948;-66
2024/01/22 01:04:33;;;;;;;9.37;5.53;;;5.60;1.00;;;;;;5120414;28;20455;-66
2024/01/22 01:07:01;;;;;;;8.90;6.63;;;5.70;99.90;;;;;;5120155;28;20809;-65
2024/01/22 01:09:28;;;;;;;7.03;5.30;;;5.70;99.90;;;;;;5120047;28;20882;-63
2024/01/22 01:11:55;;;;;;;7.97;5.60;;;5.70;99.90;;;;;;5120478;28;20538;-66
2024/01/22 01:14:23;;;;;;;8.60;6.50;;;5.70;99.90;;;;;;5120265;28;20512;-66
2024/01/22 01:16:51;;;;;;;9.37;6.77;;;5.70;99.90;;;;;;5120442;28;20489;-67
2024/01/22 01:19:19;;;;;;;13.43;8.40;;;5.70;99.90;;;;;;5120007;28;20494;-67
2024/01/22 01:21:46;;;;;;;10.53;7.93;;;5.70;1.00;;;;;;5119649;28;20492;-69
2024/01/22 01:24:13;;;;;;;12.03;8.50;;;5.80;1.00;;;;;;5120298;28;20486;-67
2024/01/22 01:26:42;;;;;;;13.73;7.90;;;5.80;99.90;;;;;;5120594;27;20892;-64
2024/01/22 01:29:09;;;;;;;11.90;8.53;;;5.80;99.90;;;;;;5120375;28;20939;-67
2024/01/22 01:31:35;;;;;;;20.23;12.10;;;5.90;99.90;;;;;;5120576;28;20517;-66
2024/01/22 01:34:04;;;;;;;15.40;8.60;;;6.00;99.90;;;;;;5120383;28;20459;-68
2024/01/22 01:36:31;;;;;;;9.97;8.53;;;6.00;99.90;;;;;;5120275;28;20459;-62
2024/01/22 01:38:59;;;;;;;11.63;7.93;;;6.10;47.30;;;;;;5120138;28;20550;-70
2024/01/22 01:41:26;;;;;;;6.73;6.03;;;6.10;1.00;;;;;;5120172;28;20577;-64
2024/01/22 01:43:53;;;;;;;9.33;5.10;;;6.10;1.00;;;;;;5119372;28;20456;-66
2024/01/22 01:46:20;;;;;;;9.53;4.80;;;6.10;1.00;;;;;;5120172;28;20554;-66
2024/01/22 01:48:48;;;;;;;5.20;3.80;;;6.20;1.00;;;;;;5119447;28;20456;-64
2024/01/22 01:51:16;;;;;;;5.83;3.73;;;6.20;1.00;;;;;;5119475;28;20455;-67
2024/01/22 01:53:45;;;;;;;6.40;3.90;;;6.20;1.00;;;;;;5120190;28;20466;-60
2024/01/22 01:56:12;;;;;;;5.53;3.83;;;6.30;1.00;;;;;;5120224;28;20736;-59
2024/01/22 01:58:40;;;;;;;5.57;3.37;;;6.30;99.90;;;;;;5120846;28;20912;-66
2024/01/22 02:01:08;;;;;;;5.87;3.53;;;6.30;99.90;;;;;;5120604;28;20494;-63
2024/01/22 02:03:35;;;;;;;5.10;3.00;;;6.40;99.90;;;;;;5119593;28;20459;-70
2024/01/22 02:06:06;;;;;;;4.80;2.90;;;6.40;99.90;;;;;;5120364;28;20499;-67
2024/01/22 02:08:34;;;;;;;8.00;3.40;;;6.50;99.90;;;;;;5120747;27;20456;-67
2024/01/22 02:11:02;;;;;;;5.13;3.33;;;6.50;99.90;;;;;;5120237;28;20480;-68
2024/01/22 02:13:29;;;;;;;7.43;3.30;;;6.50;99.90;;;;;;5119949;27;20479;-62
2024/01/22 02:15:56;;;;;;;4.73;3.10;;;6.50;99.90;;;;;;5120476;28;21034;-67
2024/01/22 02:18:24;;;;;;;5.40;3.10;;;6.50;99.90;;;;;;5120058;28;20507;-63
2024/01/22 02:20:51;;;;;;;4.50;2.90;;;6.50;99.90;;;;;;5119477;28;20459;-69
2024/01/22 02:23:19;;;;;;;5.47;3.37;;;6.50;99.90;;;;;;5119969;28;20459;-64
2024/01/22 02:25:46;;;;;;;4.33;2.87;;;6.60;99.90;;;;;;5118164;28;20546;-66
2024/01/22 02:28:14;;;;;;;4.50;3.17;;;6.60;99.90;;;;;;5118122;28;20550;-69
2024/01/22 02:30:41;;;;;;;4.40;3.07;;;6.50;99.90;;;;;;5117991;28;20509;-67
2024/01/22 02:33:08;;;;;;;5.50;2.60;;;6.50;99.90;;;;;;5118088;28;20497;-64
2024/01/22 02:35:35;;;;;;;6.23;3.00;;;6.60;99.90;;;;;;5118211;28;20888;-66
2024/01/22 02:38:03;;;;;;;4.20;2.70;;;6.60;99.90;;;;;;5118378;28;20485;-67
2024/01/22 02:40:31;;;;;;;4.77;2.53;;;6.50;99.90;;;;;;5118424;28;20477;-64
2024/01/22 02:42:58;;;;;;;6.00;3.10;;;6.50;99.90;;;;;;5118268;28;20877;-67
2024/01/22 02:45:26;;;;;;;4.33;2.70;;;6.60;99.90;;;;;;5117773;28;20962;-64
2024/01/22 02:47:53;;;;;;;4.30;3.20;;;6.60;99.90;;;;;;5118260;28;20459;-68
2024/01/22 02:50:20;;;;;;;4.67;2.73;;;6.60;98.70;;;;;;5118250;28;20543;-70
2024/01/22 02:52:47;;;;;;;4.83;2.57;;;6.60;57.50;;;;;;5117894;28;20451;-69
2024/01/22 02:55:14;;;;;;;4.00;3.00;;;6.60;79.50;;;;;;5118805;28;20438;-68
2024/01/22 02:57:43;;;;;;;4.00;2.93;;;6.60;12.20;;;;;;5117781;28;20491;-64
2024/01/22 03:00:11;;;;;;;4.47;2.77;;;6.60;55.40;;;;;;5118958;28;20745;-65
2024/01/22 03:02:38;;;;;;;3.70;3.23;;;6.60;99.90;;;;;;5118592;28;20487;-69
2024/01/22 03:05:06;;;;;;;4.53;2.90;;;6.60;99.90;;;;;;5118203;28;20546;-69
2024/01/22 03:07:33;;;;;;;3.90;3.03;;;6.60;99.90;;;;;;5117686;28;20543;-68
2024/01/22 03:10:00;;;;;;;6.67;3.50;;;6.60;99.90;;;;;;5117762;28;20578;-69
2024/01/22 03:12:27;;;;;;;3.70;3.17;;;6.60;99.90;;;;;;5118153;28;20944;-69
2024/01/22 03:14:56;;;;;;;6.37;2.77;;;6.60;99.90;;;;;;5118083;28;20485;-69
2024/01/22 03:17:23;;;;;;;7.13;3.00;;;6.70;99.90;;;;;;5117752;28;20567;-65
2024/01/22 03:19:50;;;;;;;5.90;3.40;;;6.70;99.90;;;;;;5118440;28;20459;-68
2024/01/22 03:22:18;;;;;;;4.40;3.00;;;6.60;99.90;;;;;;5118177;28;20578;-68
2024/01/22 03:24:46;;;;;;;3.83;2.80;;;6.70;99.90;;;;;;5118211;28;20451;-65
2024/01/22 03:27:14;;;;;;;5.30;3.20;;;6.70;1.00;;;;;;5117664;28;20817;-68
2024/01/22 03:29:41;;;;;;;3.73;2.80;;;6.70;99.90;;;;;;5117865;28;20971;-67
2024/01/22 03:32:10;;;;;;;3.63;2.80;;;6.70;99.90;;;;;;5117930;28;20456;-68
2024/01/22 03:34:37;;;;;;;3.40;2.50;;;6.80;99.90;;;;;;5117415;28;20455;-64
2024/01/22 03:37:04;;;;;;;4.90;2.93;;;6.80;1.00;;;;;;5117905;28;20463;-67
2024/01/22 03:39:31;;;;;;;5.00;3.00;;;6.80;99.90;;;;;;5117720;28;20951;-67
2024/01/22 03:41:58;;;;;;;4.77;2.90;;;6.80;99.90;;;;;;5117922;28;20838;-66
2024/01/22 03:44:26;;;;;;;3.73;2.80;;;6.80;99.90;;;;;;5120443;28;20718;-66
2024/01/22 03:46:53;;;;;;;5.90;2.90;;;6.80;1.00;;;;;;5121691;28;20455;-65
2024/01/22 03:49:22;;;;;;;5.40;3.30;;;6.90;1.00;;;;;;5121231;28;20527;-68
2024/01/22 03:51:49;;;;;;;5.30;2.80;;;6.90;99.90;;;;;;5121927;28;20487;-66
2024/01/22 03:54:16;;;;;;;8.17;2.90;;;6.90;99.90;;;;;;5121397;28;20495;-69
2024/01/22 03:56:44;;;;;;;3.53;2.63;;;6.90;1.00;;;;;;5121564;28;20461;-68
2024/01/22 03:59:11;;;;;;;4.20;2.40;;;6.90;1.00;;;;;;5121840;28;20892;-65
2024/01/22 04:01:38;;;;;;;4.00;2.90;;;6.90;1.00;;;;;;5121363;28;20946;-68
2024/01/22 04:04:06;;;;;;;6.83;2.97;;;6.90;1.00;;;;;;5122025;28;20451;-68
2024/01/22 04:06:34;;;;;;;4.00;2.60;;;6.90;99.90;;;;;;5122155;28;20470;-65
2024/01/22 04:09:01;;;;;;;5.07;3.17;;;6.90;99.90;;;;;;5122278;28;20791;-66
2024/01/22 04:11:29;;;;;;;7.93;3.03;;;6.90;1.00;;;;;;5122467;28;20451;-63
2024/01/22 04:13:56;;;;;;;7.40;3.17;;;6.90;99.90;;;;;;5122901;28;20943;-69
2024/01/22 04:16:23;;;;;;;5.80;2.90;;;6.90;1.00;;;;;;5120927;28;20554;-71
2024/01/22 04:18:50;;;;;;;5.47;3.40;;;6.80;74.00;;;;;;5120632;28;20462;-69
2024/01/22 04:21:17;;;;;;;8.50;2.80;;;6.70;23.70;;;;;;5121414;28;20486;-68
2024/01/22 04:23:46;;;;;;;4.93;2.37;;;6.70;99.90;;;;;;5121109;28;20530;-65
2024/01/22 04:26:13;;;;;;;9.53;3.53;;;6.70;1.00;;;;;;5121271;28;20754;-69
2024/01/22 04:28:40;;;;;;;4.93;2.73;;;6.70;1.00;;;;;;5120517;28;20490;-65
2024/01/22 04:31:07;;;;;;;4.20;2.90;;;6.70;49.20;;;;;;5121519;28;20455;-68
2024/01/22 04:33:34;;;;;;;6.90;3.60;;;6.60;99.90;;;;;;5120210;28;20513;-68
2024/01/22 04:36:02;;;;;;;7.93;2.90;;;6.60;99.90;;;;;;5120954;28;20455;-68
2024/01/22 04:38:30;;;;;;;4.53;3.37;;;6.60;99.90;;;;;;5121882;28;20461;-68
2024/01/22 04:40:58;;;;;;;6.83;3.07;;;6.60;99.90;;;;;;5119179;28;20470;-68
2024/01/22 04:43:26;;;;;;;6.13;2.83;;;6.60;99.90;;;;;;5119551;28;20582;-65
2024/01/22 04:45:53;;;;;;;7.87;2.70;;;6.60;99.90;;;;;;5121017;28;20542;-67
2024/01/22 04:48:20;;;;;;;5.40;3.07;;;6.60;99.90;;;;;;5120833;28;20460;-70
2024/01/22 04:50:47;;;;;;;4.30;3.20;;;6.60;99.90;;;;;;5122736;28;20480;-69
2024/01/22 04:53:14;;;;;;;3.83;2.90;;;6.60;99.90;;;;;;5121253;28;20462;-67
2024/01/22 04:55:41;;;;;;;4.53;2.80;;;6.60;99.90;;;;;;5121151;28;20455;-63
2024/01/22 04:58:10;;;;;;;6.07;2.90;;;6.60;99.90;;;;;;5121686;28;20558;-66
2024/01/22 05:00:37;;;;;;;4.63;2.63;;;6.60;99.90;;;;;;5119850;28;20434;-66
2024/01/22 05:03:05;;;;;;;7.80;2.90;;;6.70;99.90;;;;;;5120753;28;20572;-67
2024/01/22 05:05:33;;;;;;;7.53;2.60;;;6.70;99.90;;;;;;5121306;28;20434;-67
2024/01/22 05:08:00;;;;;;;6.10;3.20;;;6.70;99.90;;;;;;5120553;28;20481;-68
2024/01/22 05:10:28;;;;;;;5.90;2.40;;;6.70;99.90;;;;;;5120082;28;20804;-66
2024/01/22 05:12:55;;;;;;;4.70;2.50;;;6.80;99.90;;;;;;5119529;28;20504;-62
2024/01/22 05:15:23;;;;;;;5.17;2.20;;;6.70;99.90;;;;;;5119777;28;20438;-62
2024/01/22 05:17:51;;;;;;;4.20;2.60;;;6.70;99.90;;;;;;5119805;27;20512;-62
2024/01/22 05:20:19;;;;;;;3.53;2.43;;;6.80;99.90;;;;;;5119661;28;20486;-68
2024/01/22 05:22:46;;;;;;;3.77;2.10;;;6.80;99.90;;;;;;5120095;28;20494;-63
2024/01/22 05:25:13;;;;;;;5.43;2.33;;;6.80;99.90;;;;;;5120366;28;20463;-66
2024/01/22 05:27:45;;;;;;;3.33;2.43;;;6.90;99.90;;;;;;5121625;28;20513;-66
2024/01/22 05:30:13;;;;;;;6.80;2.60;;;6.90;99.90;;;;;;5122129;28;20466;-65
2024/01/22 05:32:42;;;;;;;3.40;2.50;;;6.90;99.90;;;;;;5120716;28;20483;-69
2024/01/22 05:35:09;;;;;;;3.33;2.10;;;6.90;99.90;;;;;;5122153;28;20460;-64
2024/01/22 05:37:36;;;;;;;4.07;2.47;;;6.90;99.90;;;;;;5119645;28;20496;-65
2024/01/22 05:40:05;;;;;;;3.47;2.50;;;7.00;99.90;;;;;;5119846;28;20482;-62
2024/01/22 05:42:32;;;;;;;4.03;2.47;;;7.00;99.90;;;;;;5119651;28;20582;-63
2024/01/22 05:45:00;;;;;;;4.37;2.03;;;7.00;99.90;;;;;;5118646;28;20492;-62
2024/01/22 05:47:27;;;;;;;3.83;2.60;;;7.00;99.90;;;;;;5119185;28;20542;-66
2024/01/22 05:49:56;;;;;;;5.60;2.57;;;7.00;99.90;;;;;;5119026;28;20943;-63
2024/01/22 05:52:23;;;;;;;4.57;2.73;;;7.10;99.90;;;;;;5119139;28;20559;-66
2024/01/22 05:54:50;;;;;;;4.60;2.67;;;7.10;99.90;;;;;;5118365;28;20499;-64
2024/01/22 05:57:17;;;;;;;3.20;2.50;;;7.10;99.90;;;;;;5118490;28;20509;-67
2024/01/22 05:59:45;;;;;;;5.20;2.90;;;7.10;99.90;;;;;;5118991;28;20548;-64
2024/01/22 06:02:12;;;;;;;4.60;2.30;;;7.10;99.90;;;;;;5118985;28;20522;-62
2024/01/22 06:04:39;;;;;;;4.37;2.50;;;7.20;99.90;;;;;;5118181;28;20455;-66
2024/01/22 06:07:08;;;;;;;4.87;3.23;;;7.20;99.90;;;;;;5118139;28;20498;-60
2024/01/22 06:09:35;;;;;;;4.60;3.10;;;7.20;99.90;;;;;;5118105;28;20536;-65
2024/01/22 06:12:05;;;;;;;2.97;2.20;;;7.30;99.90;;;;;;5118743;28;20750;-66
2024/01/22 06:14:32;;;;;;;5.00;2.30;;;7.20;99.90;;;;;;5118438;28;20444;-67
2024/01/22 06:16:59;;;;;;;2.90;1.80;;;7.20;99.90;;;;;;5118342;28;20935;-64
2024/01/22 06:19:27;;;;;;;3.80;2.17;;;7.30;99.90;;;;;;5118018;28;20498;-65
2024/01/22 06:21:54;;;;;;;5.00;2.37;;;7.30;99.90;;;;;;5118693;28;20459;-62
2024/01/22 06:24:23;;;;;;;5.70;2.50;;;7.40;99.90;;;;;;5117853;28;20849;-67
2024/01/22 06:26:50;;;;;;;4.03;2.70;;;7.40;99.90;;;;;;5116527;28;20460;-66
2024/01/22 06:29:17;;;;;;;4.07;2.93;;;7.40;99.90;;;;;;5116640;28;20532;-66
2024/01/22 06:31:45;;;;;;;8.20;2.70;;;7.40;99.90;;;;;;5117553;28;20433;-63
2024/01/22 06:34:12;;;;;;;3.77;2.23;;;7.50;99.90;;;;;;5117065;28;20456;-63
2024/01/22 06:36:39;;;;;;;5.90;2.23;;;7.50;99.90;;;;;;5116062;28;20452;-65
2024/01/22 06:39:08;;;;;;;3.23;2.30;;;7.60;99.90;;;;;;5117151;28;20488;-65
2024/01/22 06:41:36;;;;;;;4.83;2.10;;;7.70;99.90;;;;;;5117621;28;20550;-65
2024/01/22 06:44:04;;;;;;;4.07;2.10;;;7.60;99.90;;;;;;5117813;28;20491;-64
2024/01/22 06:46:31;;;;;;;3.60;2.50;;;7.70;99.90;;;;;;5117503;28;20456;-66
2024/01/22 06:48:58;;;;;;;3.17;1.77;;;7.70;99.90;;;;;;5117662;28;20491;-65
2024/01/22 06:51:25;;;;;;;3.10;2.20;;;7.80;99.90;;;;;;5117376;28;20945;-67
2024/01/22 06:53:53;;;;;;;2.93;1.90;;;7.80;99.90;;;;;;5117331;28;20455;-65
2024/01/22 06:56:20;;;;;;;5.03;3.50;;;7.90;99.90;;;;;;5117923;28;20560;-66
2024/01/22 06:58:49;;;;;;;3.00;2.03;;;7.90;99.90;;;;;;5117908;28;20503;-65
2024/01/22 07:01:16;;;;;;;2.37;1.60;;;7.90;99.90;;;;;;5118117;28;20452;-65
2024/01/22 07:03:43;;;;;;;3.20;1.80;;;7.90;99.90;;;;;;5117978;28;20494;-68
2024/01/22 07:06:11;;;;;;;11.40;7.77;;;8.00;99.90;;;;;;5118128;28;20452;-67
2024/01/22 07:08:38;;;;;;;4.90;2.00;;;8.00;99.90;;;;;;5117608;28;20455;-64
2024/01/22 07:11:06;;;;;;;2.47;1.70;;;8.00;99.90;;;;;;5117824;28;20484;-68
2024/01/22 07:13:34;;;;;;;3.73;2.03;;;8.00;99.90;;;;;;5117712;28;20760;-65
2024/01/22 07:16:02;;;;;;;2.80;1.83;;;8.00;99.90;;;;;;5117673;28;20483;-65
2024/01/22 07:18:29;;;;;;;3.30;2.50;;;8.00;99.90;;;;;;5118445;28;20444;-66
2024/01/22 07:20:57;;;;;;;3.77;1.70;;;8.10;99.90;;;;;;5121897;28;20460;-64
2024/01/22 07:23:24;;;;;;;2.60;1.73;;;8.10;99.90;;;;;;5122071;28;20578;-62
2024/01/22 07:25:54;;;;;;;3.90;1.80;;;8.10;99.90;;;;;;5121680;27;20467;-62
2024/01/22 07:28:21;;;;;;;4.60;3.43;;;8.10;99.90;;;;;;5122240;28;20459;-62
2024/01/22 07:30:48;;;;;;;2.67;1.70;;;8.20;99.90;;;;;;5121454;28;20501;-63
2024/01/22 07:33:17;;;;;;;4.37;1.50;;;8.20;99.90;;;;;;5121519;28;20516;-66
2024/01/22 07:35:44;;;;;;;2.70;1.80;;;8.30;99.90;;;;;;5121364;28;20467;-60
2024/01/22 07:38:12;;;;;;;3.13;1.73;;;8.30;99.90;;;;;;5120761;28;20486;-62
2024/01/22 07:40:39;;;;;;;3.40;1.70;;;8.30;99.90;;;;;;5120445;28;20500;-63
2024/01/22 07:43:06;;;;;;;3.80;1.90;;;8.40;99.90;;;;;;5112249;28;20524;-67
2024/01/22 07:45:35;;;;;;;3.23;1.50;;;8.50;99.90;;;;;;5100264;28;20745;-67
2024/01/22 07:48:02;;;;;;;2.10;1.30;;;8.50;99.90;;;;;;5100730;28;20962;-66
2024/01/22 07:50:31;;;;;;;3.20;1.83;;;8.60;99.90;;;;;;5100996;28;20503;-68
2024/01/22 07:52:58;;;;;;;2.50;1.70;;;8.60;99.90;;;;;;5100270;28;20471;-68
2024/01/22 07:55:25;;;;;;;2.53;1.40;;;8.70;99.90;;;;;;5100523;28;20517;-71
2024/01/22 07:57:52;;;;;;;2.50;1.73;;;8.80;99.90;;;;;;5100780;28;20435;-70
2024/01/22 08:00:20;;;;;;;2.60;1.70;;;8.90;99.90;;;;;;5100715;28;20484;-62
2024/01/22 08:02:47;;;;;;;3.23;1.70;;;8.90;99.90;;;;;;5100253;28;20537;-68
2024/01/22 08:05:15;;;;;;;3.60;1.80;;;9.00;99.90;;;;;;5100947;28;20542;-64
2024/01/22 08:07:44;;;;;;;2.57;1.40;;;9.00;99.90;;;;;;5100635;28;20463;-70
2024/01/22 08:10:12;;;;;;;2.30;1.47;;;9.00;99.90;;;;;;5100130;28;20487;-64
2024/01/22 08:12:40;;;;;;;4.97;1.67;;;9.00;99.90;;;;;;5099508;28;20431;-68
2024/01/22 08:15:09;;;;;;;2.70;1.63;;;9.00;99.90;;;;;;5099785;28;20460;-64
2024/01/22 08:17:37;;;;;;;3.17;1.70;;;9.00;99.90;;;;;;5100300;28;20464;-67
2024/01/22 08:20:07;;;;;;;3.47;1.90;;;8.90;99.90;;;;;;5100418;28;20461;-67
2024/01/22 08:22:34;;;;;;;3.03;1.40;;;8.90;99.90;;;;;;5099690;28;20767;-64
2024/01/22 08:25:04;;;;;;;2.30;1.60;;;8.90;99.90;;;;;;5107439;28;20817;-62
2024/01/22 08:27:31;;;;;;;9.60;4.30;;;8.90;99.90;;;;;;5119429;28;20451;-71
2024/01/22 08:29:59;;;;;;;3.33;2.23;;;8.90;99.90;;;;;;5122588;28;20463;-70
2024/01/22 08:32:26;;;;;;;2.50;1.60;;;9.00;99.90;;;;;;5121706;28;20463;-68
2024/01/22 08:34:54;;;;;;;2.50;1.70;;;9.10;99.90;;;;;;5121313;28;20487;-71
2024/01/22 08:37:22;;;;;;;3.13;1.60;;;9.20;99.90;;;;;;5121386;28;20459;-69
2024/01/22 08:39:49;;;;;;;3.07;1.97;;;9.20;99.90;;;;;;5122162;28;20760;-71
2024/01/22 08:42:18;;;;;;;2.80;1.70;;;9.30;99.90;;;;;;5120773;28;20455;-71
2024/01/22 08:44:47;;;;;;;2.97;1.83;;;9.30;99.90;;;;;;5121144;28;20531;-70
2024/01/22 08:47:14;;;;;;;3.80;1.83;;;9.30;99.90;;;;;;5120835;28;20426;-71
2024/01/22 08:49:41;;;;;;;2.63;1.57;;;9.30;99.90;;;;;;5120697;27;20455;-72
2024/01/22 08:52:09;;;;;;;2.53;1.60;;;9.30;99.90;;;;;;5121173;28;20759;-70
2024/01/22 08:54:36;;;;;;;5.80;2.90;;;9.30;99.90;;;;;;5120587;28;20451;-68
2024/01/22 08:57:03;;;;;;;2.80;1.70;;;9.30;99.90;;;;;;5120529;27;20459;-71
2024/01/22 08:59:32;;;;;;;3.17;2.10;;;9.30;99.90;;;;;;5120829;28;20929;-70
2024/01/22 09:02:00;;;;;;;4.03;1.90;;;9.40;99.90;;;;;;5120599;28;20787;-71
2024/01/22 09:04:29;;;;;;;2.57;1.53;;;9.50;99.90;;;;;;5119710;28;20487;-69
2024/01/22 09:06:56;;;;;;;5.20;3.10;;;9.50;99.90;;;;;;5119453;28;20455;-70
2024/01/22 09:09:23;;;;;;;4.60;1.70;;;9.60;99.90;;;;;;5120154;28;20479;-68
2024/01/22 09:11:51;;;;;;;3.67;2.27;;;9.70;99.90;;;;;;5119455;28;20455;-68
2024/01/22 09:14:18;;;;;;;4.60;2.43;;;9.70;99.90;;;;;;5120217;28;20505;-71
2024/01/22 09:16:47;;;;;;;4.03;2.13;;;9.80;99.90;;;;;;5119849;28;20463;-71
2024/01/22 09:19:14;;;;;;;4.37;2.40;;;9.80;99.90;;;;;;5117710;28;20509;-65
2024/01/22 09:21:43;;;;;;;3.47;2.03;;;9.90;99.90;;;;;;5116635;28;20489;-70
2024/01/22 09:24:11;;;;;;;3.17;2.30;;;9.80;99.90;;;;;;5117483;28;20517;-70
2024/01/22 09:26:38;;;;;;;3.30;1.73;;;9.80;99.90;;;;;;5118002;28;20455;-71
2024/01/22 09:29:05;;;;;;;3.50;1.80;;;9.70;99.90;;;;;;5117811;28;20471;-70
2024/01/22 09:31:33;;;;;;;4.73;2.60;;;9.70;99.90;;;;;;5117043;28;20513;-66
2024/01/22 09:34:04;;;;;;;2.37;1.60;;;9.70;99.90;;;;;;5117954;28;20865;-68
2024/01/22 09:36:31;;;;;;;3.50;1.90;;;9.70;99.90;;;;;;5117995;28;20528;-70
2024/01/22 09:38:59;;;;;;;3.13;2.03;;;9.70;99.90;;;;;;5117349;28;20459;-67
2024/01/22 09:41:28;;;;;;;5.80;2.80;;;9.70;99.90;;;;;;5117563;28;20755;-69
2024/01/22 09:43:56;;;;;;;4.57;1.80;;;9.70;99.90;;;;;;5118068;28;20507;-67
2024/01/22 09:46:24;;;;;;;3.67;1.90;;;9.70;99.90;;;;;;5118227;28;20463;-67
2024/01/22 09:48:53;;;;;;;6.87;2.60;;;9.70;99.90;;;;;;5117594;28;20455;-67
2024/01/22 09:51:22;;;;;;;4.57;2.20;;;9.80;99.90;;;;;;5118564;28;20757;-68
2024/01/22 09:53:50;;;;;;;4.60;2.17;;;9.80;99.90;;;;;;5117276;28;20455;-66
2024/01/22 09:56:20;;;;;;;3.93;2.67;;;9.80;99.90;;;;;;5116817;28;20495;-68
2024/01/22 09:58:50;;;;;;;6.13;2.20;;;9.90;99.90;;;;;;5117962;28;20903;-66
2024/01/22 10:01:20;;;;;;;6.20;2.27;;;10.00;99.90;;;;;;5118545;28;20478;-66
2024/01/22 10:03:50;;;;;;;5.70;2.30;;;10.00;99.90;;;;;;5118884;28;20536;-66
2024/01/22 10:06:21;;;;;;;8.87;3.90;;;10.10;99.90;;;;;;5118792;28;20459;-67
2024/01/22 10:08:59;;;;;;;9.67;2.90;;;10.10;99.90;;;;;;5118292;28;20467;-66
2024/01/22 10:11:27;;;;;;;7.23;2.93;;;10.20;99.90;;;;;;5118639;28;20455;-67
2024/01/22 10:13:56;;;;;;;6.60;2.73;;;10.40;99.90;;;;;;5118935;28;20865;-62
2024/01/22 10:16:26;;;;;;;8.43;3.87;;;10.50;99.90;;;;;;5118003;28;20451;-67
2024/01/22 10:18:58;;;;;;;14.97;4.13;;;10.50;99.90;;;;;;5117870;28;20455;-66
2024/01/22 10:21:25;;;;;;;4.73;2.73;;;10.50;99.90;;;;;;5118603;28;20451;-66
2024/01/22 10:24:01;;;;;;;10.10;3.50;;;10.60;99.90;;;;;;5118489;28;20783;-67
2024/01/22 10:26:30;;;;;;;10.87;3.37;;;10.60;99.90;;;;;;5119492;28;20737;-67
2024/01/22 10:29:13;;;;;;;11.53;3.67;;;10.60;99.90;;;;;;5120148;28;20459;-66
2024/01/22 10:31:55;;;;;;;5.47;3.60;;;10.80;1.00;;;;;;5120093;28;20567;-66
2024/01/22 10:34:22;;;;;;;10.03;3.80;;;10.80;99.90;;;;;;5119768;28;20539;-66
2024/01/22 10:37:06;;;;;;;8.10;3.90;;;10.80;99.90;;;;;;5119267;28;20481;-67
2024/01/22 10:39:36;;;;;;;9.70;3.37;;;10.80;92.00;;;;;;5117325;28;20463;-66
2024/01/22 10:42:11;;;;;;;8.90;3.23;;;10.80;1.00;;;;;;5119379;28;20454;-66
2024/01/22 10:44:39;;;;;;;10.47;4.07;;;10.80;1.00;;;;;;5119074;28;20837;-65
2024/01/22 10:47:07;;;;;;;7.53;3.90;;;10.90;99.90;;;;;;5118918;28;20466;-66
2024/01/22 10:49:35;;;;;;;9.33;3.07;;;10.90;99.90;;;;;;5118508;27;20508;-65
2024/01/22 10:52:03;;;;;;;8.33;3.40;;;11.00;99.90;;;;;;5118452;28;20450;-67
2024/01/22 10:54:31;;;;;;;6.40;2.60;;;11.00;99.90;;;;;;5117914;28;20811;-63
2024/01/22 10:57:04;;;;;;;9.23;3.40;;;11.10;99.90;;;;;;5115933;28;20841;-65
2024/01/22 10:59:34;;;;;;;8.83;3.97;;;11.20;27.60;;;;;;5116711;28;20558;-65
2024/01/22 11:02:03;;;;;;;7.17;2.60;;;11.20;1.00;;;;;;5115861;28;20508;-61
2024/01/22 11:04:39;;;;;;;5.90;3.50;;;11.20;1.00;;;;;;5114180;28;20495;-66
2024/01/22 11:07:07;;;;;;;8.40;2.97;;;11.20;1.00;;;;;;5115572;28;20430;-66
2024/01/22 11:09:36;;;;;;;7.03;3.90;;;11.20;1.00;;;;;;5116612;28;20776;-64
2024/01/22 11:12:10;;;;;;;8.50;2.70;;;11.20;1.00;;;;;;5119394;28;20479;-64
2024/01/22 11:14:38;;;;;;;5.10;3.03;;;11.20;1.00;;;;;;5119968;28;20463;-65
2024/01/22 11:17:08;;;;;;;7.83;2.93;;;11.20;1.00;;;;;;5121353;28;20460;-65
2024/01/22 11:19:36;;;;;;;5.87;3.43;;;11.20;1.00;;;;;;5120042;28;20834;-64
2024/01/22 11:22:11;;;;;;;7.20;1.97;;;11.20;22.20;;;;;;5119576;28;20830;-65
2024/01/22 11:24:38;;;;;;;7.70;2.37;;;11.10;1.00;;;;;;5120719;28;20491;-65
2024/01/22 11:27:08;;;;;;;8.80;2.30;;;11.00;23.40;;;;;;5118654;28;20535;-64
2024/01/22 11:29:35;;;;;;;4.50;2.27;;;10.90;99.90;;;;;;5119653;28;20430;-64
2024/01/22 11:32:30;;;;;;;4.13;2.40;;;10.80;99.90;;;;;;5120556;28;20463;-65
2024/01/22 11:35:02;;;;;;;5.40;2.53;;;10.70;99.90;;;;;;5120886;28;20451;-66
2024/01/22 11:37:37;;;;;;;4.40;2.10;;;10.60;1.00;;;;;;5120954;28;20748;-64
2024/01/22 11:40:07;;;;;;;5.27;2.60;;;10.60;1.00;;;;;;5120848;28;20538;-63
2024/01/22 11:42:37;;;;;;;4.73;2.23;;;10.70;1.00;;;;;;5121716;28;20452;-63
2024/01/22 11:45:12;;;;;;;4.23;2.27;;;10.80;1.00;;;;;;5120840;28;20780;-63
2024/01/22 11:47:40;;;;;;;6.43;2.20;;;10.80;1.00;;;;;;5121398;28;20463;-63
2024/01/22 11:50:08;;;;;;;3.13;1.77;;;10.80;1.00;;;;;;5103122;28;20528;-67
2024/01/22 11:52:37;;;;;;;3.80;2.10;;;10.80;1.00;;;;;;5105307;28;20572;-65
2024/01/22 11:55:06;;;;;;;6.67;2.10;;;10.90;1.00;;;;;;5107057;28;20457;-64
2024/01/22 11:57:36;;;;;;;4.37;2.23;;;10.90;1.00;;;;;;5104312;28;20467;-61
2024/01/22 12:00:09;;;;;;;4.70;2.13;;;11.00;1.00;;;;;;5105271;28;20460;-64
2024/01/22 12:02:37;;;;;;;3.90;1.80;;;11.00;1.00;;;;;;5102893;28;20761;-65
2024/01/22 12:05:06;;;;;;;2.50;1.50;;;11.10;99.90;;;;;;5107059;28;20575;-64
2024/01/22 12:07:36;;;;;;;3.10;1.73;;;11.10;99.90;;;;;;5118425;28;20546;-66
2024/01/22 12:10:04;;;;;;;8.20;1.93;;;11.20;99.90;;;;;;5129453;28;20776;-64
2024/01/22 12:12:32;;;;;;;5.20;2.40;;;11.10;1.00;;;;;;5127879;28;20455;-64
2024/01/22 12:15:03;;;;;;;7.53;2.10;;;11.10;1.00;;;;;;5129244;27;20457;-64
2024/01/22 12:17:31;;;;;;;4.50;1.67;;;11.00;99.90;;;;;;5122811;28;20820;-67
2024/01/22 12:19:59;;;;;;;4.73;2.13;;;10.80;99.90;;;;;;5118428;28;20910;-66
2024/01/22 12:22:28;;;;;;;4.80;1.80;;;10.70;1.00;;;;;;5118911;28;20463;-67
2024/01/22 12:25:07;;;;;;;5.30;2.40;;;10.50;97.20;;;;;;5118993;28;20470;-66
2024/01/22 12:27:35;;;;;;;6.37;2.10;;;10.40;99.90;;;;;;5120462;28;20466;-62
2024/01/22 12:30:14;;;;;;;3.70;1.90;;;10.30;99.90;;;;;;5120712;28;20518;-66
2024/01/22 12:32:52;;;;;;;7.90;3.50;;;10.20;99.90;;;;;;5121188;28;20845;-67
2024/01/22 12:35:23;;;;;;;3.33;1.83;;;10.10;99.90;;;;;;5120570;28;20731;-65
2024/01/22 12:37:50;;;;;;;12.10;2.43;;;10.10;99.90;;;;;;5120283;28;20463;-67
2024/01/22 12:40:19;;;;;;;3.90;2.30;;;10.10;99.90;;;;;;5119708;28;20945;-68
2024/01/22 12:42:49;;;;;;;9.13;2.40;;;10.10;99.90;;;;;;5119638;28;20771;-68
2024/01/22 12:45:21;;;;;;;5.80;2.67;;;10.00;99.90;;;;;;5120077;28;20510;-70
2024/01/22 12:47:49;;;;;;;8.23;2.53;;;10.10;99.90;;;;;;5120254;28;20489;-70
2024/01/22 12:50:18;;;;;;;8.20;4.07;;;10.10;99.90;;;;;;5119496;28;20466;-71
2024/01/22 12:52:46;;;;;;;6.90;2.57;;;10.20;99.90;;;;;;5119775;28;20462;-71
2024/01/22 12:55:15;;;;;;;4.60;2.27;;;10.20;99.90;;;;;;5120105;28;20880;-71
2024/01/22 12:57:44;;;;;;;4.73;2.07;;;10.20;99.90;;;;;;5120006;28;20747;-67
2024/01/22 13:00:12;;;;;;;5.60;2.80;;;10.20;99.90;;;;;;5120239;28;20465;-69